Time;durP1;ratioP1;P1;durP2;ratioP2;P2;SDS_P1;SDS_P2;PMS_P1;PMS_P2;Temp;Humidity;BMP_temperature;BMP_pressure;BME280_temperature;BME280_humidity;BME280_pressure;Samples;Min_cycle;Max_cycle;Signal;HPM_P1;HPM_P2
2022/01/12 00:00:15;;;;;;;4.78;3.67;;;;;;;;;;5134482;27;20023;-77
2022/01/12 00:02:41;;;;;;;4.40;3.53;;;;;;;;;;5116513;28;20465;-78
2022/01/12 00:05:07;;;;;;;4.70;4.05;;;;;;;;;;5136264;28;20027;-78
2022/01/12 00:07:33;;;;;;;4.60;3.75;;;;;;;;;;5136705;28;20039;-79
2022/01/12 00:09:59;;;;;;;5.80;4.13;;;;;;;;;;5136181;28;20051;-80
2022/01/12 00:12:26;;;;;;;6.90;4.20;;;;;;;;;;5134832;28;20023;-70
2022/01/12 00:14:52;;;;;;;4.78;3.70;;;;;;;;;;5135030;28;20022;-69
2022/01/12 00:17:18;;;;;;;7.50;4.55;;;;;;;;;;5115461;28;20726;-69
2022/01/12 00:19:44;;;;;;;6.78;3.53;;;;;;;;;;5133613;28;20485;-76
2022/01/12 00:22:10;;;;;;;5.07;3.92;;;;;;;;;;5115606;28;20027;-73
2022/01/12 00:33:13;;;;;;;5.25;3.90;;;;;;;;;;5113897;28;20066;-75
2022/01/12 00:35:40;;;;;;;4.00;3.60;;;;;;;;;;5113610;28;20355;-73
2022/01/12 00:38:07;;;;;;;4.75;4.00;;;;;;;;;;5113149;28;20078;-72
2022/01/12 00:40:33;;;;;;;4.35;3.70;;;;;;;;;;5095053;28;20107;-74
2022/01/12 00:43:00;;;;;;;5.35;3.08;;;;;;;;;;5134092;28;20050;-75
2022/01/12 00:45:26;;;;;;;6.65;3.90;;;;;;;;;;5134073;28;20068;-76
2022/01/12 00:47:52;;;;;;;6.43;3.78;;;;;;;;;;5134576;28;20019;-75
2022/01/12 00:50:18;;;;;;;5.38;3.90;;;;;;;;;;5133714;28;20346;-71
2022/01/12 00:52:44;;;;;;;5.00;3.80;;;;;;;;;;5133569;28;20015;-73
2022/01/12 00:55:10;;;;;;;4.03;3.40;;;;;;;;;;5133551;28;20640;-74
2022/01/12 00:57:36;;;;;;;5.13;3.67;;;;;;;;;;5133683;28;20096;-73
2022/01/12 01:00:05;;;;;;;4.47;3.90;;;;;;;;;;5134027;28;20051;-73
2022/01/12 01:02:31;;;;;;;5.13;4.00;;;;;;;;;;5133708;28;20378;-74
2022/01/12 01:04:57;;;;;;;4.60;3.67;;;;;;;;;;5133597;28;20019;-73
2022/01/12 01:07:23;;;;;;;4.18;3.45;;;;;;;;;;5135706;27;20027;-72
2022/01/12 01:10:01;;;;;;;6.38;3.60;;;;;;;;;;5137347;27;20534;-72
2022/01/12 01:12:27;;;;;;;6.22;3.63;;;;;;;;;;5137114;27;20024;-73
2022/01/12 01:15:04;;;;;;;5.28;3.63;;;;;;;;;;5136966;27;20019;-74
2022/01/12 01:25:44;;;;;;;3.95;3.13;;;;;;;;;;5137413;27;20081;-72
2022/01/12 01:28:11;;;;;;;10.40;3.80;;;;;;;;;;5127982;27;20024;-73
2022/01/12 01:30:39;;;;;;;4.65;3.63;;;;;;;;;;5097880;28;20016;-72
2022/01/12 01:33:07;;;;;;;3.53;2.90;;;;;;;;;;5118750;27;20075;-74
2022/01/12 01:35:40;;;;;;;5.20;3.38;;;;;;;;;;5136617;27;20481;-70
2022/01/12 01:38:07;;;;;;;3.83;3.20;;;;;;;;;;5118059;27;20046;-71
2022/01/12 01:40:34;;;;;;;3.85;2.97;;;;;;;;;;5136608;27;20019;-72
2022/01/12 01:43:15;;;;;;;6.72;3.22;;;;;;;;;;5136528;27;20023;-74
2022/01/12 01:53:58;;;;;;;3.63;2.97;;;;;;;;;;5136813;27;20038;-73
2022/01/12 01:56:24;;;;;;;4.68;3.05;;;;;;;;;;5136428;27;20034;-73
2022/01/12 01:58:50;;;;;;;5.75;3.20;;;;;;;;;;5136530;27;20059;-73
2022/01/12 02:01:17;;;;;;;3.03;2.72;;;;;;;;;;5136334;27;20023;-73
2022/01/12 02:03:44;;;;;;;3.25;2.80;;;;;;;;;;5136364;27;20023;-73
2022/01/12 02:06:10;;;;;;;4.20;3.00;;;;;;;;;;5136578;27;20023;-74
2022/01/12 02:08:36;;;;;;;3.33;3.00;;;;;;;;;;5136267;27;20067;-74
2022/01/12 02:11:03;;;;;;;2.85;2.42;;;;;;;;;;5136370;27;20103;-74
2022/01/12 02:13:29;;;;;;;3.10;2.83;;;;;;;;;;5125664;27;20470;-74
2022/01/12 02:15:57;;;;;;;3.38;2.83;;;;;;;;;;5135920;27;20027;-74
2022/01/12 02:18:39;;;;;;;4.95;2.67;;;;;;;;;;5135412;27;20031;-73
2022/01/12 02:40:25;;;;;;;4.20;2.80;;;;;;;;;;5135552;27;20524;-73
2022/01/12 02:53:44;;;;;;;6.75;2.35;;;;;;;;;;5135429;27;20034;-72
2022/01/12 02:56:14;;;;;;;4.72;2.10;;;;;;;;;;5135308;27;20027;-72
2022/01/12 02:58:41;;;;;;;3.10;2.58;;;;;;;;;;5134889;27;20089;-71
2022/01/12 03:03:45;;;;;;;2.97;2.40;;;;;;;;;;5134697;27;20035;-72
2022/01/12 03:06:16;;;;;;;2.63;2.42;;;;;;;;;;5135547;27;20027;-74
2022/01/12 03:08:42;;;;;;;3.08;2.63;;;;;;;;;;5135347;27;20031;-73
2022/01/12 03:11:10;;;;;;;3.88;2.50;;;;;;;;;;5134894;27;20030;-74
2022/01/12 03:13:36;;;;;;;3.65;2.20;;;;;;;;;;5126504;27;20125;-73
2022/01/12 03:16:10;;;;;;;2.70;2.30;;;;;;;;;;5114180;28;20076;-74
2022/01/12 03:18:36;;;;;;;3.25;2.38;;;;;;;;;;5103977;27;20062;-75
2022/01/12 03:21:02;;;;;;;2.40;2.17;;;;;;;;;;5134898;27;20374;-75
2022/01/12 03:23:28;;;;;;;8.25;2.50;;;;;;;;;;5134435;27;20068;-73
2022/01/12 03:25:54;;;;;;;10.45;2.90;;;;;;;;;;5134354;27;20107;-74
2022/01/12 03:28:20;;;;;;;14.35;3.85;;;;;;;;;;5126277;27;20023;-73
2022/01/12 03:31:06;;;;;;;9.68;2.25;;;;;;;;;;5123964;27;20081;-74
2022/01/12 03:38:39;;;;;;;5.20;2.50;;;;;;;;;;5125079;27;20119;-73
2022/01/12 03:41:05;;;;;;;3.85;2.30;;;;;;;;;;5121688;27;20057;-73
2022/01/12 03:43:31;;;;;;;5.05;2.13;;;;;;;;;;5121852;27;20084;-72
2022/01/12 03:45:57;;;;;;;8.07;2.00;;;;;;;;;;5118222;27;20019;-72
2022/01/12 03:48:23;;;;;;;4.40;2.40;;;;;;;;;;5124685;27;20094;-73
2022/01/12 03:50:49;;;;;;;10.98;2.47;;;;;;;;;;5103284;28;20031;-73
2022/01/12 03:53:15;;;;;;;3.65;2.15;;;;;;;;;;5124384;27;20084;-73
2022/01/12 03:55:42;;;;;;;6.35;2.10;;;;;;;;;;5125369;27;20031;-73
2022/01/12 03:58:10;;;;;;;4.22;2.13;;;;;;;;;;5115604;27;20046;-73
2022/01/12 04:00:36;;;;;;;3.97;2.20;;;;;;;;;;5134159;27;20019;-73
2022/01/12 04:03:05;;;;;;;3.30;2.20;;;;;;;;;;5134314;27;20027;-73
2022/01/12 04:08:19;;;;;;;5.60;2.37;;;;;;;;;;5134292;28;20023;-73
2022/01/12 04:10:46;;;;;;;4.70;2.15;;;;;;;;;;5115497;28;20027;-73
2022/01/12 04:13:13;;;;;;;5.40;2.50;;;;;;;;;;5133716;28;20027;-73
2022/01/12 04:15:39;;;;;;;2.00;1.80;;;;;;;;;;5132894;28;20027;-73
2022/01/12 04:18:05;;;;;;;2.20;2.00;;;;;;;;;;5133817;28;20047;-73
2022/01/12 04:20:31;;;;;;;2.75;2.22;;;;;;;;;;5115375;28;20031;-73
2022/01/12 04:25:41;;;;;;;2.70;2.00;;;;;;;;;;5134320;28;20068;-72
2022/01/12 04:28:07;;;;;;;5.10;2.30;;;;;;;;;;5115225;28;20023;-72
2022/01/12 04:30:33;;;;;;;2.55;1.92;;;;;;;;;;5104490;28;20027;-72
2022/01/12 04:32:59;;;;;;;4.13;2.13;;;;;;;;;;5112985;28;20028;-72
2022/01/12 04:35:31;;;;;;;4.85;2.50;;;;;;;;;;5113091;28;20016;-72
2022/01/12 04:37:57;;;;;;;3.83;1.95;;;;;;;;;;5094497;28;20429;-73
2022/01/12 04:40:23;;;;;;;3.25;2.13;;;;;;;;;;5112953;28;20440;-71
2022/01/12 04:42:49;;;;;;;2.50;2.10;;;;;;;;;;5115922;28;20474;-71
2022/01/12 04:45:32;;;;;;;3.72;2.70;;;;;;;;;;5120833;27;20015;-71
2022/01/12 04:48:07;;;;;;;4.18;2.15;;;;;;;;;;5137551;27;20087;-71
2022/01/12 04:50:37;;;;;;;3.42;2.30;;;;;;;;;;5137378;27;20062;-71
2022/01/12 04:53:03;;;;;;;2.55;2.20;;;;;;;;;;5137827;27;20062;-71
2022/01/12 04:55:29;;;;;;;2.80;2.28;;;;;;;;;;5137514;27;20110;-71
2022/01/12 04:57:55;;;;;;;2.97;2.40;;;;;;;;;;5137144;27;20122;-71
2022/01/12 05:00:22;;;;;;;2.67;2.08;;;;;;;;;;5137416;27;20053;-71
2022/01/12 05:13:54;;;;;;;3.67;2.65;;;;;;;;;;5127364;27;20046;-70
2022/01/12 05:16:21;;;;;;;2.97;2.40;;;;;;;;;;5137032;27;20110;-71
2022/01/12 05:18:48;;;;;;;2.83;2.50;;;;;;;;;;5136227;27;20035;-71
2022/01/12 05:21:14;;;;;;;2.88;2.58;;;;;;;;;;5136194;27;20076;-71
2022/01/12 05:23:40;;;;;;;3.78;2.45;;;;;;;;;;5118690;27;20030;-73
2022/01/12 05:26:07;;;;;;;4.20;2.80;;;;;;;;;;5136140;27;20489;-72
2022/01/12 05:28:33;;;;;;;4.47;2.45;;;;;;;;;;5124799;27;20023;-73
2022/01/12 05:31:00;;;;;;;3.85;2.50;;;;;;;;;;5129639;27;20506;-74
2022/01/12 05:33:26;;;;;;;3.35;2.22;;;;;;;;;;5136694;27;20482;-72
2022/01/12 05:35:54;;;;;;;3.72;2.47;;;;;;;;;;5136342;27;20063;-72
2022/01/12 05:38:20;;;;;;;5.00;2.38;;;;;;;;;;5136469;27;20047;-71
2022/01/12 05:40:47;;;;;;;3.45;2.20;;;;;;;;;;5136010;27;20023;-71
2022/01/12 05:43:13;;;;;;;3.00;2.50;;;;;;;;;;5136516;27;20027;-71
2022/01/12 05:45:44;;;;;;;3.05;2.17;;;;;;;;;;5135847;27;20048;-71
2022/01/12 05:50:36;;;;;;;4.88;2.20;;;;;;;;;;5135852;27;20031;-71
2022/01/12 05:53:03;;;;;;;3.28;2.40;;;;;;;;;;5135114;27;20390;-72
2022/01/12 05:55:29;;;;;;;5.10;1.92;;;;;;;;;;5135364;27;20027;-72
2022/01/12 05:57:55;;;;;;;4.25;2.55;;;;;;;;;;5135921;27;20386;-72
2022/01/12 06:00:22;;;;;;;2.13;1.92;;;;;;;;;;5135225;27;20057;-72
2022/01/12 06:02:48;;;;;;;2.33;2.00;;;;;;;;;;5115309;27;20023;-73
2022/01/12 06:05:18;;;;;;;3.22;2.30;;;;;;;;;;5135256;27;20027;-73
2022/01/12 06:07:45;;;;;;;4.20;2.30;;;;;;;;;;5136050;27;20520;-73
2022/01/12 06:10:11;;;;;;;2.78;2.17;;;;;;;;;;5103317;27;20041;-71
2022/01/12 06:12:38;;;;;;;1.98;1.70;;;;;;;;;;5128072;27;20352;-72
2022/01/12 06:15:04;;;;;;;2.45;1.90;;;;;;;;;;5135285;27;20466;-72
2022/01/12 06:17:30;;;;;;;2.42;2.08;;;;;;;;;;5135786;27;20081;-72
2022/01/12 06:19:56;;;;;;;2.08;1.88;;;;;;;;;;5135800;27;20027;-75
2022/01/12 06:22:24;;;;;;;2.65;2.45;;;;;;;;;;5153603;27;20031;-74
2022/01/12 06:24:50;;;;;;;3.70;3.40;;;;;;;;;;5134262;27;20031;-75
2022/01/12 06:27:17;;;;;;;4.00;3.65;;;;;;;;;;5136957;27;20019;-74
2022/01/12 06:29:51;;;;;;;3.30;3.00;;;;;;;;;;5137002;27;20023;-76
2022/01/12 06:32:17;;;;;;;3.92;3.53;;;;;;;;;;5100212;28;20109;-76
2022/01/12 06:34:45;;;;;;;4.15;3.25;;;;;;;;;;5119542;27;20031;-73
2022/01/12 06:37:11;;;;;;;3.78;3.35;;;;;;;;;;5115403;27;20073;-75
2022/01/12 06:39:37;;;;;;;7.10;3.50;;;;;;;;;;5119466;27;20410;-74
2022/01/12 06:42:03;;;;;;;7.95;3.42;;;;;;;;;;5137433;27;20023;-73
2022/01/12 06:44:29;;;;;;;5.32;3.08;;;;;;;;;;5139373;27;20501;-73
2022/01/12 06:46:58;;;;;;;4.55;3.00;;;;;;;;;;5137152;27;20030;-73
2022/01/12 06:49:24;;;;;;;6.25;2.97;;;;;;;;;;5135959;27;20022;-74
2022/01/12 06:51:50;;;;;;;4.78;3.40;;;;;;;;;;5136751;27;20031;-71
2022/01/12 06:54:16;;;;;;;9.75;3.20;;;;;;;;;;5135488;27;20092;-69
2022/01/12 06:56:42;;;;;;;16.80;3.38;;;;;;;;;;5134545;27;20148;-67
2022/01/12 06:59:09;;;;;;;15.77;3.45;;;;;;;;;;5116666;27;20553;-68
2022/01/12 07:01:35;;;;;;;14.63;3.17;;;;;;;;;;5134578;27;20106;-67
2022/01/12 07:04:01;;;;;;;28.55;3.85;;;;;;;;;;5135326;27;20035;-72
2022/01/12 07:06:28;;;;;;;34.58;3.63;;;;;;;;;;5134390;27;20026;-72
2022/01/12 07:08:54;;;;;;;7.80;3.03;;;;;;;;;;5134783;27;20034;-72
2022/01/12 07:11:20;;;;;;;29.50;3.72;;;;;;;;;;5134298;27;20080;-71
2022/01/12 07:13:46;;;;;;;20.42;3.25;;;;;;;;;;5134708;27;20075;-71
2022/01/12 07:16:12;;;;;;;34.97;3.40;;;;;;;;;;5134176;27;20043;-71
2022/01/12 07:18:38;;;;;;;12.85;3.10;;;;;;;;;;5134587;27;20744;-69
2022/01/12 07:21:04;;;;;;;15.38;3.00;;;;;;;;;;5133273;27;20046;-69
2022/01/12 07:23:30;;;;;;;14.75;2.85;;;;;;;;;;5122930;27;20039;-71
2022/01/12 07:25:56;;;;;;;8.18;2.80;;;;;;;;;;5132785;27;20031;-70
2022/01/12 07:28:22;;;;;;;15.60;3.30;;;;;;;;;;5125335;27;20425;-70
2022/01/12 07:30:49;;;;;;;11.63;2.88;;;;;;;;;;5133795;27;20482;-70
2022/01/12 07:33:16;;;;;;;9.40;2.75;;;;;;;;;;5126533;27;20020;-74
2022/01/12 07:35:42;;;;;;;16.40;2.78;;;;;;;;;;5126237;27;20059;-77
2022/01/12 07:38:08;;;;;;;10.50;2.30;;;;;;;;;;5116319;27;20051;-70
2022/01/12 07:40:35;;;;;;;14.40;2.78;;;;;;;;;;5134311;27;20084;-71
2022/01/12 07:43:02;;;;;;;8.38;2.42;;;;;;;;;;5131148;27;20043;-66
2022/01/12 07:45:28;;;;;;;9.18;2.28;;;;;;;;;;5123368;27;20032;-65
2022/01/12 07:47:54;;;;;;;3.00;2.10;;;;;;;;;;5117931;27;20026;-65
2022/01/12 07:50:20;;;;;;;15.25;2.45;;;;;;;;;;5121317;27;20018;-65
2022/01/12 07:52:46;;;;;;;6.68;2.50;;;;;;;;;;5134044;27;20031;-65
2022/01/12 07:55:12;;;;;;;8.68;2.38;;;;;;;;;;5133161;27;20381;-65
2022/01/12 07:57:38;;;;;;;3.38;2.40;;;;;;;;;;5133885;27;20122;-66
2022/01/12 08:00:05;;;;;;;10.10;2.30;;;;;;;;;;5132724;27;20387;-66
2022/01/12 08:02:31;;;;;;;11.40;2.40;;;;;;;;;;5133912;27;20062;-66
2022/01/12 08:04:57;;;;;;;4.60;2.30;;;;;;;;;;5114295;27;20051;-66
2022/01/12 08:07:23;;;;;;;7.30;2.00;;;;;;;;;;5133976;27;20027;-66
2022/01/12 08:09:49;;;;;;;8.07;1.98;;;;;;;;;;5133213;27;20983;-65
2022/01/12 08:12:15;;;;;;;9.48;2.97;;;;;;;;;;5133737;28;20023;-65
2022/01/12 08:14:41;;;;;;;5.93;2.60;;;;;;;;;;5115006;28;20043;-66
2022/01/12 08:17:07;;;;;;;5.47;2.08;;;;;;;;;;5112626;28;20064;-65
2022/01/12 08:19:36;;;;;;;6.43;2.60;;;;;;;;;;5116027;28;20024;-65
2022/01/12 08:22:02;;;;;;;2.88;2.15;;;;;;;;;;5114871;28;20031;-65
2022/01/12 08:24:28;;;;;;;5.38;2.28;;;;;;;;;;5116494;28;20027;-65
2022/01/12 08:26:54;;;;;;;5.68;2.38;;;;;;;;;;5116442;28;20374;-65
2022/01/12 08:29:22;;;;;;;7.65;2.13;;;;;;;;;;5117269;27;20080;-66
2022/01/12 08:31:48;;;;;;;8.50;2.03;;;;;;;;;;5137456;27;20015;-65
2022/01/12 08:34:14;;;;;;;11.35;1.92;;;;;;;;;;5137613;27;20058;-64
2022/01/12 08:36:41;;;;;;;5.25;2.30;;;;;;;;;;5137233;27;20092;-65
2022/01/12 08:39:08;;;;;;;6.07;1.80;;;;;;;;;;5118921;27;20027;-65
2022/01/12 08:41:35;;;;;;;3.20;2.15;;;;;;;;;;5137918;27;20019;-75
2022/01/12 08:44:01;;;;;;;5.35;2.22;;;;;;;;;;5138365;27;20521;-71
2022/01/12 08:46:27;;;;;;;2.20;2.00;;;;;;;;;;5137740;27;20019;-70
2022/01/12 08:48:53;;;;;;;5.55;1.88;;;;;;;;;;5118829;27;20067;-65
2022/01/12 08:51:19;;;;;;;4.95;2.30;;;;;;;;;;5137481;27;20537;-72
2022/01/12 08:53:45;;;;;;;3.05;2.13;;;;;;;;;;5137541;27;20030;-71
2022/01/12 08:56:11;;;;;;;2.33;2.10;;;;;;;;;;5137438;27;20062;-69
2022/01/12 08:58:37;;;;;;;2.85;1.92;;;;;;;;;;5136972;27;20080;-68
2022/01/12 09:01:04;;;;;;;3.42;1.90;;;;;;;;;;5136898;27;20016;-68
2022/01/12 09:03:30;;;;;;;1.98;1.80;;;;;;;;;;5137011;27;20023;-68
2022/01/12 09:05:56;;;;;;;1.98;1.85;;;;;;;;;;5118564;27;20027;-68
2022/01/12 09:08:22;;;;;;;2.28;2.08;;;;;;;;;;5137045;27;20096;-69
2022/01/12 09:10:49;;;;;;;3.30;2.13;;;;;;;;;;5136795;27;20110;-69
2022/01/12 09:13:15;;;;;;;2.45;1.88;;;;;;;;;;5118695;27;20020;-68
2022/01/12 09:15:41;;;;;;;1.92;1.70;;;;;;;;;;5136830;27;20096;-68
2022/01/12 09:18:07;;;;;;;2.00;1.80;;;;;;;;;;5136744;27;20432;-69
2022/01/12 09:20:33;;;;;;;4.38;2.25;;;;;;;;;;5136058;27;20031;-66
2022/01/12 09:22:59;;;;;;;3.58;1.75;;;;;;;;;;5133392;27;20027;-74
2022/01/12 09:25:25;;;;;;;3.28;2.10;;;;;;;;;;5136258;27;20031;-69
2022/01/12 09:27:51;;;;;;;2.28;1.90;;;;;;;;;;5111349;28;20054;-67
2022/01/12 09:30:22;;;;;;;2.33;1.95;;;;;;;;;;5097123;28;20063;-67
2022/01/12 09:32:48;;;;;;;2.65;2.15;;;;;;;;;;5115811;28;20069;-67
2022/01/12 09:35:14;;;;;;;2.22;1.95;;;;;;;;;;5097667;28;20350;-66
2022/01/12 09:37:40;;;;;;;1.90;1.80;;;;;;;;;;5115707;28;20138;-66
2022/01/12 09:40:07;;;;;;;2.95;1.92;;;;;;;;;;5116059;28;20100;-66
2022/01/12 09:42:33;;;;;;;2.97;2.38;;;;;;;;;;5115868;28;20059;-67
2022/01/12 09:44:59;;;;;;;3.17;2.50;;;;;;;;;;5097139;28;20030;-66
2022/01/12 09:47:25;;;;;;;1.98;1.80;;;;;;;;;;5115194;28;20020;-67
2022/01/12 09:49:52;;;;;;;3.55;2.70;;;;;;;;;;5115239;28;20059;-69
2022/01/12 09:52:18;;;;;;;10.40;2.45;;;;;;;;;;5115479;28;20042;-71
2022/01/12 09:54:44;;;;;;;3.60;2.75;;;;;;;;;;5115275;28;20032;-71
2022/01/12 09:57:10;;;;;;;3.80;2.72;;;;;;;;;;5114987;28;20529;-70
2022/01/12 09:59:36;;;;;;;7.18;3.40;;;;;;;;;;5115066;28;20106;-71
2022/01/12 10:02:03;;;;;;;4.10;3.30;;;;;;;;;;5107972;27;20019;-71
2022/01/12 10:04:30;;;;;;;15.52;3.45;;;;;;;;;;5136031;27;20034;-71
2022/01/12 10:07:00;;;;;;;11.30;3.90;;;;;;;;;;5136003;27;20359;-70
2022/01/12 18:54:24;;;;;;;60.05;18.10;;;;;;;;;;5123044;27;20395;-74
2022/01/12 18:56:50;;;;;;;61.78;19.20;;;;;;;;;;5110880;28;20032;-66
2022/01/12 18:59:16;;;;;;;88.47;18.00;;;;;;;;;;5087754;28;20016;-70
2022/01/12 19:01:42;;;;;;;77.78;16.33;;;;;;;;;;5090685;28;20101;-68
2022/01/12 19:04:10;;;;;;;67.90;17.67;;;;;;;;;;5072413;28;20059;-67
2022/01/12 19:06:37;;;;;;;47.88;16.23;;;;;;;;;;5090772;28;20428;-70
2022/01/12 19:09:04;;;;;;;52.67;16.45;;;;;;;;;;5072392;28;20031;-70
2022/01/12 19:11:30;;;;;;;78.65;16.55;;;;;;;;;;5090387;28;20020;-64
2022/01/12 19:14:10;;;;;;;59.85;16.33;;;;;;;;;;5090183;28;20386;-69
2022/01/12 19:16:37;;;;;;;72.00;15.10;;;;;;;;;;5071426;28;20482;-68
2022/01/12 19:19:03;;;;;;;57.90;15.27;;;;;;;;;;5089310;28;20038;-68
2022/01/12 19:21:29;;;;;;;39.97;13.50;;;;;;;;;;5086630;28;20486;-67
2022/01/12 19:23:55;;;;;;;65.95;13.70;;;;;;;;;;5084900;28;20036;-68
2022/01/12 19:26:21;;;;;;;48.70;11.93;;;;;;;;;;5089755;28;20103;-66
2022/01/12 19:28:48;;;;;;;48.35;12.50;;;;;;;;;;5089408;28;20454;-67
2022/01/12 19:31:14;;;;;;;65.90;11.23;;;;;;;;;;5071733;28;20035;-68
2022/01/12 19:33:40;;;;;;;36.80;10.95;;;;;;;;;;5089597;28;20028;-67
2022/01/12 19:36:06;;;;;;;53.13;10.75;;;;;;;;;;5089528;28;20028;-68
2022/01/12 19:38:32;;;;;;;46.35;10.15;;;;;;;;;;5089528;28;20028;-67
2022/01/12 19:40:58;;;;;;;52.63;10.25;;;;;;;;;;5089296;28;20020;-66
2022/01/12 19:43:26;;;;;;;40.25;9.68;;;;;;;;;;5065163;28;20044;-65
2022/01/12 19:45:52;;;;;;;41.40;8.73;;;;;;;;;;5069018;28;20028;-69
2022/01/12 19:48:18;;;;;;;47.03;8.85;;;;;;;;;;5069331;28;20112;-67
2022/01/12 19:50:44;;;;;;;49.42;8.25;;;;;;;;;;5087671;28;20034;-68
2022/01/12 19:53:16;;;;;;;36.95;7.95;;;;;;;;;;5088682;28;20052;-69
2022/01/12 19:55:48;;;;;;;33.38;8.25;;;;;;;;;;5087257;28;20498;-64
2022/01/12 19:58:18;;;;;;;44.60;8.70;;;;;;;;;;5084081;28;20032;-68
2022/01/12 20:00:49;;;;;;;28.55;7.72;;;;;;;;;;5088693;28;20020;-67
2022/01/12 20:03:19;;;;;;;54.00;7.45;;;;;;;;;;5088727;28;20036;-64
2022/01/12 20:05:45;;;;;;;44.97;7.03;;;;;;;;;;5057832;28;20025;-69
2022/01/12 20:08:30;;;;;;;25.65;6.57;;;;;;;;;;5075738;28;20021;-68
2022/01/12 20:10:56;;;;;;;29.40;6.53;;;;;;;;;;5075565;28;20091;-68
2022/01/12 20:13:22;;;;;;;36.90;6.22;;;;;;;;;;5075635;28;20032;-67
2022/01/12 20:15:51;;;;;;;26.30;6.03;;;;;;;;;;5073950;28;20028;-66
2022/01/12 20:24:05;;;;;;;23.25;5.57;;;;;;;;;;5075425;28;20449;-70
2022/01/12 20:26:31;;;;;;;19.25;5.00;;;;;;;;;;5058652;28;20055;-69
2022/01/12 20:28:57;;;;;;;30.52;5.20;;;;;;;;;;5052261;28;20483;-67
2022/01/12 20:31:23;;;;;;;23.75;4.80;;;;;;;;;;5075316;28;20024;-66
2022/01/12 20:33:51;;;;;;;37.63;5.45;;;;;;;;;;5075026;28;20527;-66
2022/01/12 20:36:17;;;;;;;29.60;5.00;;;;;;;;;;5075152;28;20032;-68
2022/01/12 20:38:43;;;;;;;42.47;5.40;;;;;;;;;;5075049;28;20111;-67
2022/01/12 20:41:10;;;;;;;25.23;4.45;;;;;;;;;;5074035;28;21785;-69
2022/01/12 20:43:36;;;;;;;22.30;4.22;;;;;;;;;;5074728;28;20063;-69
2022/01/12 20:46:02;;;;;;;22.73;4.68;;;;;;;;;;5074413;28;20016;-69
2022/01/12 20:48:28;;;;;;;31.38;5.45;;;;;;;;;;5056321;28;20036;-67
2022/01/12 20:50:54;;;;;;;34.20;5.10;;;;;;;;;;5074375;28;20776;-68
2022/01/12 20:53:23;;;;;;;39.65;4.13;;;;;;;;;;5073176;28;20136;-67
2022/01/12 20:55:49;;;;;;;22.00;3.90;;;;;;;;;;5069074;28;20029;-63
2022/01/12 20:58:15;;;;;;;20.50;4.18;;;;;;;;;;5062266;28;20028;-69
2022/01/12 21:00:41;;;;;;;32.08;3.88;;;;;;;;;;5074121;28;20031;-70
2022/01/12 21:03:07;;;;;;;26.98;3.90;;;;;;;;;;5056561;28;20086;-64
2022/01/12 21:05:33;;;;;;;20.25;3.80;;;;;;;;;;5056734;28;20443;-66
2022/01/12 21:07:59;;;;;;;46.92;3.58;;;;;;;;;;5074554;28;20082;-67
2022/01/12 21:10:25;;;;;;;32.60;3.60;;;;;;;;;;5074375;28;20024;-63
2022/01/12 21:12:51;;;;;;;27.98;3.63;;;;;;;;;;5056432;28;20032;-68
2022/01/12 21:15:17;;;;;;;18.25;3.70;;;;;;;;;;5056082;28;20132;-66
2022/01/12 21:17:43;;;;;;;23.85;3.92;;;;;;;;;;5073844;28;20475;-69
2022/01/12 21:20:11;;;;;;;20.52;3.90;;;;;;;;;;5074382;28;20050;-67
2022/01/12 21:22:37;;;;;;;20.17;3.38;;;;;;;;;;5073937;28;20049;-69
2022/01/12 21:25:03;;;;;;;12.40;3.28;;;;;;;;;;5074280;28;20028;-63
2022/01/12 21:27:29;;;;;;;13.85;2.90;;;;;;;;;;5056399;28;20021;-65
2022/01/12 21:29:55;;;;;;;15.98;3.22;;;;;;;;;;5068510;28;20048;-66
2022/01/12 21:32:21;;;;;;;8.95;3.00;;;;;;;;;;5053997;28;20041;-63
2022/01/12 21:34:52;;;;;;;18.60;3.17;;;;;;;;;;5053953;28;20013;-68
2022/01/12 21:37:25;;;;;;;15.55;3.15;;;;;;;;;;5054232;28;20033;-67
2022/01/12 21:39:56;;;;;;;16.70;4.05;;;;;;;;;;5053746;28;20381;-69
2022/01/12 21:42:22;;;;;;;10.23;3.05;;;;;;;;;;5054171;28;20044;-67
2022/01/12 21:44:48;;;;;;;6.95;3.05;;;;;;;;;;5053625;28;20479;-67
2022/01/12 21:47:15;;;;;;;15.63;3.33;;;;;;;;;;5053696;28;20032;-69
2022/01/12 21:49:41;;;;;;;4.97;2.85;;;;;;;;;;5068608;28;20020;-69
2022/01/12 21:52:07;;;;;;;6.13;3.08;;;;;;;;;;5074842;28;20020;-64
2022/01/12 21:54:35;;;;;;;6.60;3.03;;;;;;;;;;5073647;28;20060;-69
2022/01/12 21:57:01;;;;;;;4.85;3.17;;;;;;;;;;5073623;28;20020;-69
2022/01/12 21:59:28;;;;;;;7.28;3.05;;;;;;;;;;5073247;28;20094;-67
2022/01/12 22:01:55;;;;;;;10.18;3.38;;;;;;;;;;5073114;28;20032;-68
2022/01/12 22:04:22;;;;;;;7.28;2.80;;;;;;;;;;5073402;28;20028;-67
2022/01/12 22:06:50;;;;;;;14.15;3.05;;;;;;;;;;5073609;28;20052;-68
2022/01/12 22:09:16;;;;;;;8.38;2.92;;;;;;;;;;5073398;28;20030;-69
2022/01/12 22:11:42;;;;;;;5.25;2.67;;;;;;;;;;5073630;28;20021;-69
2022/01/12 22:14:08;;;;;;;3.42;2.55;;;;;;;;;;5073394;28;20023;-65
2022/01/12 22:16:34;;;;;;;7.97;2.80;;;;;;;;;;5073499;28;20028;-70
2022/01/12 22:19:00;;;;;;;5.68;2.70;;;;;;;;;;5055472;28;20062;-71
2022/01/12 22:21:26;;;;;;;6.97;3.08;;;;;;;;;;5073449;28;20776;-66
2022/01/12 22:23:53;;;;;;;5.15;3.20;;;;;;;;;;5073094;28;20379;-69
2022/01/12 22:26:19;;;;;;;4.47;2.90;;;;;;;;;;5073343;28;20028;-68
2022/01/12 22:28:45;;;;;;;2.67;2.47;;;;;;;;;;5065383;28;20154;-68
2022/01/12 22:31:11;;;;;;;2.90;2.40;;;;;;;;;;5035320;28;20017;-69
2022/01/12 22:33:37;;;;;;;5.55;3.22;;;;;;;;;;5053213;28;20032;-68
2022/01/12 22:36:03;;;;;;;3.20;2.85;;;;;;;;;;5053302;28;20110;-69
2022/01/12 22:38:29;;;;;;;3.33;2.75;;;;;;;;;;5053028;28;20043;-68
2022/01/12 22:40:55;;;;;;;5.45;2.92;;;;;;;;;;5053140;28;20025;-69
2022/01/12 22:43:22;;;;;;;3.50;2.80;;;;;;;;;;5052891;28;20515;-68
2022/01/12 22:45:48;;;;;;;4.90;3.10;;;;;;;;;;5069428;28;20028;-68
2022/01/12 22:48:14;;;;;;;2.83;2.35;;;;;;;;;;5072938;28;20035;-65
2022/01/12 22:50:40;;;;;;;5.18;2.75;;;;;;;;;;5063984;28;20012;-63
2022/01/12 22:53:07;;;;;;;3.35;2.50;;;;;;;;;;5072704;28;20044;-66
2022/01/12 22:55:35;;;;;;;5.15;2.70;;;;;;;;;;5072900;28;20017;-65
2022/01/12 22:58:14;;;;;;;5.28;2.85;;;;;;;;;;5072995;28;20016;-69
2022/01/12 23:00:41;;;;;;;3.80;2.92;;;;;;;;;;5054818;28;20111;-70
2022/01/12 23:03:07;;;;;;;5.93;2.97;;;;;;;;;;5052150;28;20039;-70
2022/01/12 23:05:33;;;;;;;6.65;2.95;;;;;;;;;;5052587;28;20056;-67
2022/01/12 23:07:59;;;;;;;4.55;2.50;;;;;;;;;;5034902;28;20024;-67
2022/01/12 23:10:25;;;;;;;5.25;2.67;;;;;;;;;;5052323;28;20414;-69
2022/01/12 23:12:52;;;;;;;5.93;2.45;;;;;;;;;;5052642;28;20103;-69
2022/01/12 23:15:18;;;;;;;4.03;2.97;;;;;;;;;;5052161;28;20083;-70
2022/01/12 23:17:44;;;;;;;3.45;2.50;;;;;;;;;;5052638;28;20033;-71
2022/01/12 23:20:10;;;;;;;3.10;2.53;;;;;;;;;;5052405;28;20108;-70
2022/01/12 23:22:36;;;;;;;3.40;2.30;;;;;;;;;;5052316;28;20377;-63
2022/01/12 23:25:03;;;;;;;4.65;2.40;;;;;;;;;;5034144;28;20517;-68
2022/01/12 23:27:29;;;;;;;2.42;2.15;;;;;;;;;;5037041;28;20036;-66
2022/01/12 23:29:55;;;;;;;3.63;2.20;;;;;;;;;;5072298;28;20097;-67
2022/01/12 23:32:21;;;;;;;2.50;2.30;;;;;;;;;;5072418;28;20043;-70
2022/01/12 23:40:23;;;;;;;2.55;2.05;;;;;;;;;;5073870;28;20141;-70
2022/01/12 23:43:14;;;;;;;2.50;2.30;;;;;;;;;;5075905;28;20032;-68
2022/01/12 23:48:36;;;;;;;3.30;2.40;;;;;;;;;;5076097;28;20071;-69
2022/01/12 23:51:09;;;;;;;5.35;2.67;;;;;;;;;;5084753;28;20012;-69
2022/01/12 23:58:52;;;;;;;11.57;3.42;;;;;;;;;;5076086;28;20474;-67
